createdAt,value
2022-08-10T00:01:34.364Z,17.30
2022-08-10T00:04:02.234Z,17.30
2022-08-10T00:06:29.513Z,17.20
2022-08-10T00:08:56.621Z,17.20
2022-08-10T00:11:23.966Z,17.20
2022-08-10T00:13:51.472Z,17.10
2022-08-10T00:16:19.250Z,17.10
2022-08-10T00:18:46.334Z,17.00
2022-08-10T00:21:13.421Z,17.00
2022-08-10T00:23:40.446Z,17.00
2022-08-10T00:26:07.886Z,17.00
2022-08-10T00:28:34.983Z,17.00
2022-08-10T00:31:02.552Z,16.90
2022-08-10T00:33:29.534Z,16.90
2022-08-10T00:35:56.606Z,16.80
2022-08-10T00:38:24.047Z,16.80
2022-08-10T00:40:51.172Z,16.80
2022-08-10T00:43:23.411Z,16.80
2022-08-10T00:45:59.041Z,16.80
2022-08-10T00:48:28.939Z,16.80
2022-08-10T00:50:56.188Z,16.70
2022-08-10T00:53:23.169Z,16.70
2022-08-10T00:57:16.914Z,16.60
2022-08-10T00:58:40.475Z,16.60
2022-08-10T01:01:08.316Z,16.50
2022-08-10T01:04:57.814Z,16.50
2022-08-10T01:06:53.485Z,16.50
2022-08-10T01:09:27.397Z,16.40
2022-08-10T01:12:38.293Z,16.30
2022-08-10T01:15:22.513Z,16.30
2022-08-10T01:17:52.904Z,16.30
2022-08-10T01:20:42.486Z,16.30
2022-08-10T01:23:47.168Z,16.30
2022-08-10T01:26:40.568Z,16.30
2022-08-10T01:29:29.809Z,16.20
2022-08-10T01:32:04.797Z,16.20
2022-08-10T01:34:41.022Z,16.10
2022-08-10T01:37:13.635Z,16.00
2022-08-10T01:39:45.399Z,16.00
2022-08-10T01:42:16.851Z,16.00
2022-08-10T01:44:49.726Z,16.00
2022-08-10T01:47:36.988Z,16.00
2022-08-10T01:50:09.981Z,15.90
2022-08-10T01:52:40.414Z,15.90
2022-08-10T01:55:08.320Z,15.90
2022-08-10T01:57:37.680Z,15.90
2022-08-10T02:00:05.526Z,15.90
2022-08-10T02:02:35.291Z,15.90
2022-08-10T02:05:05.362Z,15.80
2022-08-10T02:07:34.284Z,15.70
2022-08-10T02:10:09.751Z,15.70
2022-08-10T02:12:37.765Z,15.70
2022-08-10T02:15:12.764Z,15.80
2022-08-10T02:17:58.416Z,15.70
2022-08-10T02:20:36.291Z,15.70
2022-08-10T02:23:08.738Z,15.70
2022-08-10T02:25:41.774Z,15.70
2022-08-10T02:28:30.575Z,15.60
2022-08-10T02:31:06.422Z,15.50
2022-08-10T02:33:37.258Z,15.40
2022-08-10T02:36:09.077Z,15.40
2022-08-10T02:38:59.359Z,15.30
2022-08-10T02:45:14.588Z,15.30
2022-08-10T02:45:26.305Z,15.30
2022-08-10T02:47:51.693Z,15.30
2022-08-10T02:50:22.931Z,15.40
2022-08-10T02:53:01.671Z,15.40
2022-08-10T02:55:32.349Z,15.30
2022-08-10T02:58:12.937Z,15.10
2022-08-10T03:00:49.800Z,15.10
2022-08-10T03:03:30.453Z,15.00
2022-08-10T03:06:09.403Z,15.00
2022-08-10T03:08:41.086Z,14.90
2022-08-10T03:11:13.951Z,14.90
2022-08-10T03:13:43.136Z,14.80
2022-08-10T03:16:10.639Z,14.80
2022-08-10T03:18:40.240Z,14.80
2022-08-10T03:21:11.811Z,14.80
2022-08-10T03:23:40.932Z,14.80
2022-08-10T03:26:08.943Z,14.70
2022-08-10T03:28:36.704Z,14.80
2022-08-10T03:31:04.538Z,14.80
2022-08-10T03:33:35.537Z,14.80
2022-08-10T03:36:40.341Z,14.80
2022-08-10T03:38:53.525Z,14.90
2022-08-10T03:41:30.659Z,15.00
2022-08-10T03:44:05.207Z,15.00
2022-08-10T03:46:35.628Z,15.10
2022-08-10T03:49:05.569Z,15.10
2022-08-10T03:51:34.364Z,15.10
2022-08-10T03:54:06.983Z,15.10
2022-08-10T03:56:39.961Z,15.00
2022-08-10T03:59:13.076Z,15.00
2022-08-10T04:02:41.633Z,15.10
2022-08-10T04:04:33.725Z,15.10
2022-08-10T04:07:03.484Z,15.30
2022-08-10T04:09:53.353Z,15.30
2022-08-10T04:12:21.128Z,15.30
2022-08-10T04:14:50.684Z,15.40
2022-08-10T04:18:03.006Z,15.40
2022-08-10T04:20:17.551Z,15.50
2022-08-10T04:22:49.953Z,15.60
2022-08-10T04:25:18.371Z,15.70
2022-08-10T04:27:46.288Z,15.60
2022-08-10T04:30:13.563Z,15.70
2022-08-10T04:32:41.830Z,15.70
2022-08-10T04:35:10.887Z,15.80
2022-08-10T04:37:43.285Z,15.80
2022-08-10T04:40:28.750Z,15.80
2022-08-10T04:43:02.345Z,15.80
2022-08-10T04:45:49.857Z,15.70
2022-08-10T04:48:40.278Z,15.80
2022-08-10T04:51:19.104Z,15.80
2022-08-10T04:54:06.124Z,15.80
2022-08-10T04:56:38.716Z,15.90
2022-08-10T04:59:07.209Z,15.90
2022-08-10T05:02:12.525Z,16.00
2022-08-10T05:04:38.413Z,16.00
2022-08-10T05:07:16.231Z,16.00
2022-08-10T05:10:02.358Z,16.10
2022-08-10T05:12:39.404Z,16.30
2022-08-10T05:15:12.243Z,16.50
2022-08-10T05:17:40.628Z,16.80
2022-08-10T05:20:09.971Z,17.00
2022-08-10T05:22:42.255Z,17.10
2022-08-10T05:25:20.136Z,17.30
2022-08-10T05:27:47.867Z,17.50
2022-08-10T05:30:20.650Z,17.50
2022-08-10T05:32:58.452Z,17.50
2022-08-10T05:35:28.090Z,17.60
2022-08-10T05:38:12.055Z,17.70
2022-08-10T05:40:47.320Z,17.90
2022-08-10T05:43:20.284Z,18.10
2022-08-10T05:46:18.718Z,18.20
2022-08-10T05:48:55.464Z,18.20
2022-08-10T05:51:26.397Z,18.60
2022-08-10T05:54:01.258Z,18.80
2022-08-10T05:56:54.799Z,18.70
2022-08-10T06:00:10.758Z,18.80
2022-08-10T06:02:32.109Z,18.60
2022-08-10T06:05:08.358Z,18.90
2022-08-10T06:07:40.184Z,18.90
2022-08-10T06:10:11.299Z,19.30
2022-08-10T06:12:54.074Z,19.60
2022-08-10T06:15:50.508Z,19.70
2022-08-10T06:18:16.430Z,19.80
2022-08-10T06:20:44.026Z,19.70
2022-08-10T06:23:12.038Z,20.00
2022-08-10T06:26:10.956Z,20.30
2022-08-10T06:28:31.149Z,20.50
2022-08-10T06:31:00.293Z,20.80
2022-08-10T06:33:31.752Z,20.90
2022-08-10T06:36:00.530Z,21.00
2022-08-10T06:38:30.696Z,21.00
2022-08-10T06:41:01.912Z,21.00
2022-08-10T06:43:30.869Z,21.30
2022-08-10T06:46:07.997Z,21.60
2022-08-10T06:48:51.742Z,21.70
2022-08-10T06:51:29.546Z,21.50
2022-08-10T06:54:00.310Z,21.40
2022-08-10T06:56:35.980Z,21.40
2022-08-10T06:59:27.836Z,21.70
2022-08-10T07:02:21.558Z,22.10
2022-08-10T07:04:52.246Z,22.20
2022-08-10T07:07:22.720Z,22.40
2022-08-10T07:09:51.253Z,22.40
2022-08-10T07:12:20.915Z,22.40
2022-08-10T07:14:51.328Z,22.60
2022-08-10T07:17:24.706Z,22.70
2022-08-10T07:19:56.925Z,22.40
2022-08-10T07:23:02.553Z,22.70
2022-08-10T07:25:25.283Z,22.80
2022-08-10T07:27:58.879Z,22.80
2022-08-10T07:30:31.751Z,23.10
2022-08-10T07:33:01.322Z,23.40
2022-08-10T07:35:36.403Z,23.40
2022-08-10T07:38:13.903Z,23.50
2022-08-10T07:40:42.319Z,23.70
2022-08-10T07:43:11.026Z,23.60
2022-08-10T07:45:39.036Z,23.60
2022-08-10T07:48:15.311Z,23.70
2022-08-10T07:50:43.644Z,23.60
2022-08-10T07:53:16.831Z,23.80
2022-08-10T07:56:03.629Z,24.00
2022-08-10T07:58:51.820Z,24.00
2022-08-10T08:01:24.531Z,24.00
2022-08-10T08:04:06.037Z,24.10
2022-08-10T08:06:42.069Z,23.80
2022-08-10T08:09:11.029Z,23.90
2022-08-10T08:11:43.759Z,24.10
2022-08-10T08:14:11.926Z,24.30
2022-08-10T08:16:44.073Z,24.40
2022-08-10T08:19:28.523Z,24.60
2022-08-10T08:24:10.494Z,24.10
2022-08-10T08:24:48.140Z,24.30
2022-08-10T08:27:20.387Z,24.50
2022-08-10T08:29:49.823Z,24.70
2022-08-10T08:32:26.099Z,24.40
2022-08-10T08:34:59.441Z,24.70
2022-08-10T08:38:32.639Z,25.00
2022-08-10T08:40:29.226Z,24.70
2022-08-10T08:43:10.998Z,24.60
2022-08-10T08:46:09.034Z,24.70
2022-08-10T08:48:48.108Z,24.70
2022-08-10T08:52:09.832Z,25.20
2022-08-10T08:54:59.481Z,25.50
2022-08-10T08:57:49.800Z,25.90
2022-08-10T09:00:51.490Z,26.00
2022-08-10T09:03:30.802Z,25.90
2022-08-10T09:06:17.242Z,25.90
2022-08-10T09:09:16.544Z,26.10
2022-08-10T09:12:06.205Z,26.20
2022-08-10T09:14:57.892Z,26.30
2022-08-10T09:17:31.440Z,26.30
2022-08-10T09:20:17.244Z,26.50
2022-08-10T09:23:03.523Z,26.50
2022-08-10T09:25:36.652Z,26.20
2022-08-10T09:28:05.578Z,26.30
2022-08-10T09:31:18.660Z,26.70
2022-08-10T09:36:22.291Z,26.60
2022-08-10T09:37:08.662Z,26.30
2022-08-10T09:40:48.472Z,26.40
2022-08-10T09:43:26.050Z,26.60
2022-08-10T09:46:15.646Z,26.80
2022-08-10T09:48:57.168Z,26.70
2022-08-10T09:51:46.007Z,26.90
2022-08-10T09:54:38.445Z,26.80
2022-08-10T09:57:46.341Z,26.60
2022-08-10T10:00:21.693Z,26.50
2022-08-10T10:02:57.397Z,26.90
2022-08-10T10:05:51.092Z,27.10
2022-08-10T10:08:25.189Z,27.30
2022-08-10T10:11:04.154Z,27.40
2022-08-10T10:14:02.474Z,27.70
2022-08-10T10:16:44.236Z,27.70
2022-08-10T10:19:45.898Z,27.80
2022-08-10T10:22:33.851Z,27.90
2022-08-10T10:25:51.000Z,28.10
2022-08-10T10:28:51.343Z,28.10
2022-08-10T10:31:33.458Z,28.20
2022-08-10T10:34:05.159Z,28.40
2022-08-10T10:36:34.408Z,28.20
2022-08-10T10:39:02.815Z,28.10
2022-08-10T10:42:04.607Z,28.10
2022-08-10T10:45:09.863Z,28.40
2022-08-10T10:47:58.196Z,28.50
2022-08-10T10:50:43.986Z,28.40
2022-08-10T10:53:19.118Z,28.30
2022-08-10T10:56:14.690Z,28.60
2022-08-10T10:58:42.908Z,28.20
2022-08-10T11:01:22.418Z,28.10
2022-08-10T11:03:55.356Z,28.20
2022-08-10T11:06:39.764Z,28.60
2022-08-10T11:10:05.983Z,28.80
2022-08-10T11:12:26.189Z,28.80
2022-08-10T11:15:06.588Z,28.20
2022-08-10T11:17:35.655Z,28.70
2022-08-10T11:20:24.563Z,29.20
2022-08-10T11:23:28.566Z,30.00
2022-08-10T11:26:07.545Z,29.60
2022-08-10T11:28:40.878Z,29.00
2022-08-10T11:31:44.823Z,28.80
2022-08-10T11:34:47.829Z,29.30
2022-08-10T11:37:32.921Z,29.80
2022-08-10T11:40:29.904Z,30.00
2022-08-10T11:43:14.522Z,29.90
2022-08-10T11:46:08.002Z,29.80
2022-08-10T11:49:00.843Z,30.40
2022-08-10T11:51:45.163Z,31.70
2022-08-10T11:54:22.176Z,32.70
2022-08-10T11:56:53.019Z,32.80
2022-08-10T11:59:42.101Z,34.40
2022-08-10T12:02:13.257Z,35.90
2022-08-10T12:04:44.634Z,37.00
2022-08-10T12:10:01.988Z,37.20
2022-08-10T12:10:07.178Z,39.50
2022-08-10T12:12:50.665Z,40.40
2022-08-10T12:15:27.721Z,36.80
2022-08-10T12:17:59.342Z,36.00
2022-08-10T12:20:34.601Z,37.80
2022-08-10T12:23:30.366Z,39.60
2022-08-10T12:26:13.803Z,40.90
2022-08-10T12:29:03.774Z,41.40
2022-08-10T12:31:40.893Z,41.40
2022-08-10T12:34:39.803Z,42.50
2022-08-10T12:37:19.079Z,43.50
2022-08-10T12:40:33.808Z,42.70
2022-08-10T12:44:03.991Z,43.50
2022-08-10T12:46:19.827Z,41.10
2022-08-10T12:49:13.122Z,39.20
2022-08-10T12:51:53.531Z,39.50
2022-08-10T12:54:31.893Z,37.80
2022-08-10T12:57:04.681Z,36.80
2022-08-10T12:59:33.697Z,36.20
2022-08-10T13:02:14.847Z,35.50
2022-08-10T13:04:43.584Z,35.20
2022-08-10T13:08:04.075Z,34.60
2022-08-10T13:10:07.975Z,34.00
2022-08-10T13:12:40.949Z,33.80
2022-08-10T13:15:48.562Z,32.90
2022-08-10T13:18:19.630Z,32.90
2022-08-10T13:20:52.515Z,32.30
2022-08-10T13:23:25.021Z,32.30
2022-08-10T13:25:54.988Z,32.00
2022-08-10T13:28:35.454Z,31.50
2022-08-10T13:31:07.290Z,31.70
2022-08-10T13:34:36.605Z,31.90
2022-08-10T13:36:31.387Z,31.10
2022-08-10T13:38:59.997Z,31.40
2022-08-10T13:41:30.684Z,32.30
2022-08-10T13:43:59.976Z,35.40
2022-08-10T13:46:27.888Z,37.20
2022-08-10T13:48:58.049Z,37.80
2022-08-10T13:51:56.494Z,38.00
2022-08-10T13:54:18.052Z,38.00
2022-08-10T13:56:47.740Z,39.90
2022-08-10T13:59:16.501Z,40.20
2022-08-10T14:01:50.428Z,41.60
2022-08-10T14:04:19.752Z,40.90
2022-08-10T14:07:00.542Z,39.90
2022-08-10T14:09:32.337Z,39.90
2022-08-10T14:12:01.287Z,40.10
2022-08-10T14:14:31.320Z,40.10
2022-08-10T14:16:59.257Z,40.00
2022-08-10T14:19:36.593Z,38.50
2022-08-10T14:22:06.475Z,37.90
2022-08-10T14:24:33.897Z,37.70
2022-08-10T14:27:10.151Z,38.90
2022-08-10T14:29:43.673Z,39.80
2022-08-10T14:32:12.873Z,42.50
2022-08-10T14:36:16.885Z,42.90
2022-08-10T14:37:38.321Z,43.80
2022-08-10T14:40:28.699Z,44.70
2022-08-10T14:43:28.213Z,44.70
2022-08-10T14:46:01.391Z,45.00
2022-08-10T14:48:33.976Z,43.80
2022-08-10T14:51:02.972Z,40.80
2022-08-10T14:53:34.758Z,39.90
2022-08-10T14:56:09.169Z,39.30
2022-08-10T14:58:38.907Z,39.90
2022-08-10T15:01:26.182Z,38.50
2022-08-10T15:04:17.043Z,37.10
2022-08-10T15:06:57.571Z,36.00
2022-08-10T15:09:28.155Z,35.20
2022-08-10T15:12:14.225Z,34.40
2022-08-10T15:14:46.877Z,33.60
2022-08-10T15:17:37.419Z,33.20
2022-08-10T15:20:20.950Z,32.80
2022-08-10T15:22:54.722Z,32.20
2022-08-10T15:25:26.072Z,32.30
2022-08-10T15:28:06.351Z,31.90
2022-08-10T15:30:43.001Z,31.70
2022-08-10T15:34:03.012Z,31.60
2022-08-10T15:37:36.856Z,31.50
2022-08-10T15:40:21.227Z,31.50
2022-08-10T15:42:41.727Z,31.60
2022-08-10T15:45:19.756Z,31.60
2022-08-10T15:48:03.729Z,31.70
2022-08-10T15:50:43.909Z,31.70
2022-08-10T15:53:16.049Z,32.80
2022-08-10T15:55:53.541Z,34.90
2022-08-10T15:58:42.435Z,37.20
2022-08-10T16:02:14.908Z,39.10
2022-08-10T16:04:08.445Z,40.60
2022-08-10T16:06:42.795Z,40.80
2022-08-10T16:10:24.640Z,40.70
2022-08-10T16:12:32.533Z,40.60
2022-08-10T16:15:07.941Z,40.50
2022-08-10T16:17:54.222Z,39.90
2022-08-10T16:20:31.551Z,39.20
2022-08-10T16:23:03.057Z,39.00
2022-08-10T16:25:44.586Z,39.60
2022-08-10T16:28:23.201Z,39.90
2022-08-10T16:30:55.851Z,39.80
2022-08-10T16:33:53.454Z,40.60
2022-08-10T16:36:18.847Z,41.20
2022-08-10T16:38:49.366Z,40.80
2022-08-10T16:42:00.193Z,39.90
2022-08-10T16:44:10.309Z,40.80
2022-08-10T16:46:43.804Z,41.00
2022-08-10T16:49:15.794Z,41.30
2022-08-10T16:51:47.794Z,41.50
2022-08-10T16:54:22.417Z,42.10
2022-08-10T16:56:53.852Z,42.20
2022-08-10T16:59:24.510Z,41.70
2022-08-10T17:01:54.198Z,41.60
2022-08-10T17:04:23.678Z,39.00
2022-08-10T17:06:59.767Z,39.80
2022-08-10T17:09:29.994Z,40.10
2022-08-10T17:11:59.317Z,39.90
2022-08-10T17:14:28.920Z,39.50
2022-08-10T17:17:08.186Z,39.80
2022-08-10T17:19:45.080Z,38.80
2022-08-10T17:22:23.066Z,38.50
2022-08-10T17:25:08.205Z,38.50
2022-08-10T17:28:05.486Z,37.60
2022-08-10T17:30:35.175Z,37.50
2022-08-10T17:33:15.625Z,37.40
2022-08-10T17:35:47.110Z,37.10
2022-08-10T17:38:20.968Z,37.10
2022-08-10T17:41:12.343Z,37.00
2022-08-10T17:43:46.305Z,36.30
2022-08-10T17:46:38.512Z,36.20
2022-08-10T17:49:08.404Z,35.40
2022-08-10T17:51:40.464Z,33.60
2022-08-10T17:54:46.410Z,32.20
2022-08-10T17:57:21.439Z,31.30
2022-08-10T17:59:51.565Z,30.60
2022-08-10T18:02:27.295Z,30.00
2022-08-10T18:04:58.295Z,29.60
2022-08-10T18:07:35.490Z,29.20
2022-08-10T18:10:05.087Z,28.90
2022-08-10T18:12:50.606Z,28.70
2022-08-10T18:15:27.607Z,28.50
2022-08-10T18:18:02.566Z,28.20
2022-08-10T18:20:36.413Z,28.00
2022-08-10T18:23:05.029Z,27.70
2022-08-10T18:25:35.728Z,27.30
2022-08-10T18:28:05.987Z,27.10
2022-08-10T18:30:46.086Z,26.80
2022-08-10T18:33:15.002Z,26.60
2022-08-10T18:35:44.770Z,26.40
2022-08-10T18:38:14.565Z,25.90
2022-08-10T18:40:50.157Z,25.80
2022-08-10T18:44:10.815Z,25.70
2022-08-10T18:46:14.421Z,25.70
2022-08-10T18:49:14.395Z,25.60
2022-08-10T18:51:46.289Z,25.50
2022-08-10T18:54:31.339Z,25.40
2022-08-10T18:57:36.209Z,25.30
2022-08-10T19:00:12.234Z,25.30
2022-08-10T19:02:57.259Z,25.20
2022-08-10T19:05:56.273Z,25.00
2022-08-10T19:08:59.882Z,24.80
2022-08-10T19:12:01.125Z,24.70
2022-08-10T19:14:37.378Z,24.50
2022-08-10T19:17:25.457Z,24.50
2022-08-10T19:20:25.769Z,24.40
2022-08-10T19:23:25.886Z,24.30
2022-08-10T19:26:42.071Z,24.20
2022-08-10T19:29:07.957Z,24.10
2022-08-10T19:32:08.434Z,24.00
2022-08-10T19:34:53.403Z,23.90
2022-08-10T19:37:44.270Z,23.70
2022-08-10T19:40:44.054Z,23.70
2022-08-10T19:44:00.734Z,23.60
2022-08-10T19:46:47.339Z,23.50
2022-08-10T19:49:39.770Z,23.40
2022-08-10T19:52:25.820Z,23.40
2022-08-10T19:55:05.456Z,23.30
2022-08-10T19:57:59.945Z,23.30
2022-08-10T20:00:49.498Z,23.10
2022-08-10T20:03:16.509Z,23.00
2022-08-10T20:06:13.102Z,22.90
2022-08-10T20:08:57.445Z,22.90
2022-08-10T20:11:44.195Z,22.80
2022-08-10T20:14:29.378Z,22.70
2022-08-10T20:17:03.994Z,22.60
2022-08-10T20:19:52.587Z,22.50
2022-08-10T20:22:30.418Z,22.50
2022-08-10T20:25:16.612Z,22.40
2022-08-10T20:27:59.188Z,22.40
2022-08-10T20:30:33.611Z,22.30
2022-08-10T20:33:16.779Z,22.20
2022-08-10T20:35:43.919Z,22.00
2022-08-10T20:38:15.913Z,21.90
2022-08-10T20:40:49.412Z,21.80
2022-08-10T20:43:39.061Z,21.80
2022-08-10T20:46:13.795Z,21.70
2022-08-10T20:48:48.889Z,21.50
2022-08-10T20:51:21.839Z,21.50
2022-08-10T20:53:56.356Z,21.50
2022-08-10T20:56:45.167Z,21.40
2022-08-10T21:00:04.290Z,21.40
2022-08-10T21:02:35.257Z,21.30
2022-08-10T21:05:22.343Z,21.20
2022-08-10T21:08:23.593Z,21.10
2022-08-10T21:11:02.317Z,21.00
2022-08-10T21:13:54.352Z,20.90
2022-08-10T21:16:32.205Z,20.80
2022-08-10T21:19:12.663Z,20.60
2022-08-10T21:22:08.238Z,20.50
2022-08-10T21:24:46.145Z,20.50
2022-08-10T21:27:27.204Z,20.50
2022-08-10T21:30:12.189Z,20.40
2022-08-10T21:32:54.408Z,20.40
2022-08-10T21:35:38.346Z,20.30
2022-08-10T21:38:30.009Z,20.20
2022-08-10T21:41:57.529Z,20.20
2022-08-10T21:45:09.226Z,20.10
2022-08-10T21:48:19.805Z,20.00
2022-08-10T21:51:24.247Z,20.00
2022-08-10T21:54:25.913Z,19.80
2022-08-10T21:57:22.581Z,19.80
2022-08-10T22:00:29.652Z,19.70
2022-08-10T22:03:18.632Z,19.60
2022-08-10T22:06:10.920Z,19.60
2022-08-10T22:09:03.467Z,19.50
2022-08-10T22:11:57.414Z,19.50
2022-08-10T22:14:52.514Z,19.40
2022-08-10T22:18:00.940Z,19.30
2022-08-10T22:20:50.116Z,19.30
2022-08-10T22:24:06.663Z,19.30
2022-08-10T22:27:05.279Z,19.30
2022-08-10T22:29:59.811Z,19.20
2022-08-10T22:33:08.112Z,19.20
2022-08-10T22:36:18.802Z,19.20
2022-08-10T22:40:10.216Z,19.10
2022-08-10T22:42:59.472Z,19.10
2022-08-10T22:45:55.152Z,19.00
2022-08-10T22:48:40.624Z,19.00
2022-08-10T22:51:17.098Z,19.00
2022-08-10T22:54:06.742Z,19.00
2022-08-10T22:56:59.404Z,18.90
2022-08-10T22:59:32.351Z,18.80
2022-08-10T23:02:15.893Z,18.70
2022-08-10T23:04:55.687Z,18.60
2022-08-10T23:07:32.002Z,18.50
2022-08-10T23:10:05.690Z,18.40
2022-08-10T23:12:41.633Z,18.30
2022-08-10T23:15:37.709Z,18.20
2022-08-10T23:18:26.593Z,18.20
2022-08-10T23:20:56.844Z,18.20
2022-08-10T23:23:25.925Z,18.10
2022-08-10T23:25:57.182Z,18.10
2022-08-10T23:28:39.045Z,18.00
2022-08-10T23:32:00.640Z,18.00
2022-08-10T23:34:06.453Z,18.00
2022-08-10T23:36:37.519Z,18.00
2022-08-10T23:39:25.448Z,17.90
2022-08-10T23:42:07.027Z,17.80
2022-08-10T23:44:47.939Z,17.80
2022-08-10T23:47:21.746Z,17.80
2022-08-10T23:49:51.814Z,17.80
2022-08-10T23:52:27.693Z,17.80
2022-08-10T23:54:58.092Z,17.90
2022-08-10T23:57:28.015Z,17.90
